Time;durP1;ratioP1;P1;durP2;ratioP2;P2;SDS_P1;SDS_P2;PMS_P1;PMS_P2;Temp;Humidity;BMP_temperature;BMP_pressure;BME280_temperature;BME280_humidity;BME280_pressure;Samples;Min_cycle;Max_cycle;Signal;HPM_P1;HPM_P2
2022/04/10 00:00:28;;;;;;;25.35;5.70;;;;;;;1.07;91.76;101749.00;5048936;28;20028;-68
2022/04/10 00:02:54;;;;;;;10.10;5.05;;;;;;;1.06;91.43;101749.09;5048962;28;20029;-68
2022/04/10 00:05:19;;;;;;;11.85;5.47;;;;;;;1.03;91.48;101750.16;5050256;28;20029;-68
2022/04/10 00:07:44;;;;;;;11.50;4.80;;;;;;;1.04;91.66;101754.44;5050297;28;20071;-68
2022/04/10 00:10:10;;;;;;;11.07;4.90;;;;;;;1.03;91.72;101755.41;5050187;28;20043;-68
2022/04/10 00:12:36;;;;;;;13.13;6.30;;;;;;;1.00;91.37;101745.13;5050169;28;20120;-68
2022/04/10 00:15:03;;;;;;;9.70;4.95;;;;;;;1.04;91.69;101759.69;5050019;28;20028;-68
2022/04/10 00:17:28;;;;;;;10.60;4.72;;;;;;;1.00;91.92;101760.06;5050073;28;20056;-68
2022/04/10 00:19:53;;;;;;;9.90;5.03;;;;;;;1.00;91.59;101760.06;5050201;28;20021;-68
2022/04/10 00:22:19;;;;;;;11.23;4.88;;;;;;;0.96;91.57;101759.44;5049966;28;20029;-68
2022/04/10 00:24:45;;;;;;;10.40;5.25;;;;;;;0.96;91.60;101755.97;5049917;28;20033;-68
2022/04/10 00:27:13;;;;;;;10.02;4.97;;;;;;;0.94;91.73;101752.59;5049795;28;20067;-68
2022/04/10 00:29:40;;;;;;;15.02;4.95;;;;;;;0.92;91.91;101752.75;5049824;28;20885;-66
2022/04/10 00:32:06;;;;;;;12.18;5.00;;;;;;;0.91;91.61;101747.59;5049688;28;20519;-68
2022/04/10 00:34:31;;;;;;;10.93;4.95;;;;;;;0.90;91.84;101751.16;5049568;28;20033;-67
2022/04/10 00:36:56;;;;;;;14.63;5.82;;;;;;;0.89;91.87;101752.94;5047993;28;20416;-67
2022/04/10 00:39:22;;;;;;;11.02;4.82;;;;;;;0.87;91.64;101747.81;5048368;28;20029;-67
2022/04/10 00:41:49;;;;;;;10.70;4.78;;;;;;;0.88;92.17;101757.34;5049698;28;20025;-67
2022/04/10 00:44:15;;;;;;;10.10;4.95;;;;;;;0.86;92.04;101750.53;5048164;28;20037;-67
2022/04/10 00:46:41;;;;;;;12.05;5.03;;;;;;;0.86;91.82;101743.53;5049620;28;20055;-68
2022/04/10 00:49:07;;;;;;;10.45;5.05;;;;;;;0.83;91.95;101746.34;5049572;28;20040;-67
2022/04/10 00:51:40;;;;;;;10.98;5.30;;;;;;;0.84;92.16;101739.31;5049450;28;20116;-68
2022/04/10 00:54:05;;;;;;;13.18;4.28;;;;;;;0.84;92.02;101748.03;5049299;28;20045;-67
2022/04/10 00:56:31;;;;;;;11.35;5.05;;;;;;;0.83;92.04;101742.88;5049491;28;20095;-67
2022/04/10 00:58:57;;;;;;;10.30;4.18;;;;;;;0.80;92.13;101743.13;5048994;28;20035;-67
2022/04/10 01:01:22;;;;;;;11.77;5.63;;;;;;;0.75;92.38;101732.09;5049397;28;20036;-67
2022/04/10 01:03:47;;;;;;;12.10;4.75;;;;;;;0.80;92.26;101743.13;5049233;28;20041;-68
2022/04/10 01:06:13;;;;;;;10.80;4.82;;;;;;;0.78;92.29;101743.22;5049305;28;20033;-67
2022/04/10 01:08:39;;;;;;;12.90;6.57;;;;;;;0.78;92.46;101748.47;5049209;28;20021;-67
2022/04/10 01:11:04;;;;;;;6.90;4.68;;;;;;;0.77;92.35;101745.97;5049274;28;20025;-67
2022/04/10 01:13:30;;;;;;;18.10;5.15;;;;;;;0.77;92.02;101744.16;5049228;28;20025;-68
2022/04/10 01:15:55;;;;;;;8.80;4.60;;;;;;;0.72;92.36;101735.78;5049293;28;20090;-67
2022/04/10 01:18:21;;;;;;;13.13;5.18;;;;;;;0.71;91.86;101742.00;5049105;28;20496;-68
2022/04/10 01:20:46;;;;;;;12.30;4.50;;;;;;;0.72;92.56;101737.56;5047624;28;20075;-68
2022/04/10 01:23:12;;;;;;;9.80;4.18;;;;;;;0.71;92.38;101747.25;5047841;28;20033;-68
2022/04/10 01:25:38;;;;;;;16.73;4.90;;;;;;;0.70;92.43;101747.34;5049036;28;20090;-67
2022/04/10 01:28:13;;;;;;;13.85;4.78;;;;;;;0.63;92.98;101733.84;5049044;28;20029;-68
2022/04/10 01:30:39;;;;;;;9.95;4.57;;;;;;;0.70;92.44;101744.72;5049036;28;20103;-67
2022/04/10 01:33:05;;;;;;;11.63;6.55;;;;;;;0.65;92.46;101745.91;5048881;28;20025;-68
2022/04/10 01:35:32;;;;;;;12.02;4.50;;;;;;;0.69;92.41;101750.94;5047658;28;20094;-68
2022/04/10 01:38:00;;;;;;;24.85;7.93;;;;;;;0.67;92.31;101750.19;5049026;28;20049;-67
2022/04/10 01:40:26;;;;;;;11.43;5.07;;;;;;;0.65;92.34;101751.16;5048541;28;20452;-67
2022/04/10 01:42:52;;;;;;;11.57;5.25;;;;;;;0.64;92.50;101748.63;5048940;28;20071;-67
2022/04/10 01:45:17;;;;;;;8.70;4.63;;;;;;;0.63;92.34;101746.97;5048868;28;20498;-67
2022/04/10 01:47:43;;;;;;;14.65;6.00;;;;;;;0.65;92.33;101745.91;5050716;28;20134;-68
2022/04/10 01:50:10;;;;;;;11.82;5.22;;;;;;;0.65;92.51;101752.91;5053071;28;20033;-68
2022/04/10 01:52:36;;;;;;;9.13;4.82;;;;;;;0.63;92.38;101745.19;5052961;28;20048;-69
2022/04/10 01:55:01;;;;;;;10.73;5.90;;;;;;;0.61;92.39;101749.69;5052729;28;20130;-67
2022/04/10 01:57:27;;;;;;;14.50;6.82;;;;;;;0.61;92.51;101757.56;5052918;28;20033;-67
2022/04/10 01:59:52;;;;;;;14.50;6.13;;;;;;;0.52;92.59;101746.88;5052791;28;20357;-67
2022/04/10 02:02:17;;;;;;;11.30;4.60;;;;;;;0.59;92.58;101761.25;5052617;28;20044;-67
2022/04/10 02:04:42;;;;;;;12.70;5.78;;;;;;;0.55;92.07;101759.78;5052674;28;20552;-68
2022/04/10 02:07:08;;;;;;;17.20;6.18;;;;;;;0.54;92.60;101766.81;5052617;28;20033;-68
2022/04/10 02:09:33;;;;;;;17.20;6.68;;;;;;;0.53;92.62;101769.56;5052576;28;20036;-68
2022/04/10 02:11:59;;;;;;;12.50;6.95;;;;;;;0.52;92.59;101771.31;5052529;28;20028;-68
2022/04/10 02:14:24;;;;;;;13.45;5.88;;;;;;;0.51;92.53;101772.28;5052488;28;20025;-68
2022/04/10 02:16:49;;;;;;;9.95;5.40;;;;;;;0.50;92.93;101775.88;5052426;28;20116;-67
2022/04/10 02:19:15;;;;;;;13.05;6.35;;;;;;;0.50;92.93;101773.25;5052371;28;20025;-68
2022/04/10 02:21:40;;;;;;;10.60;5.28;;;;;;;0.50;93.10;101772.38;5052348;28;20088;-67
2022/04/10 02:24:06;;;;;;;12.55;6.00;;;;;;;0.49;93.15;101774.16;5052291;28;20469;-67
2022/04/10 02:26:31;;;;;;;12.75;5.45;;;;;;;0.46;93.26;101761.28;5052157;28;20037;-68
2022/04/10 02:28:56;;;;;;;16.92;6.05;;;;;;;0.50;93.25;101765.38;5050986;28;20435;-67
2022/04/10 02:31:22;;;;;;;12.63;7.00;;;;;;;0.50;93.22;101768.00;5052036;28;20115;-68
2022/04/10 02:33:47;;;;;;;11.20;5.45;;;;;;;0.49;93.23;101775.97;5051769;28;20043;-68
2022/04/10 02:36:16;;;;;;;13.15;6.32;;;;;;;0.47;93.31;101770.81;5052042;28;20029;-68
2022/04/10 02:38:42;;;;;;;11.45;5.20;;;;;;;0.47;93.51;101772.59;5051353;28;20121;-68
2022/04/10 02:41:07;;;;;;;11.80;5.70;;;;;;;0.44;93.36;101784.97;5050950;28;20116;-68
2022/04/10 02:43:32;;;;;;;9.80;4.50;;;;;;;0.37;93.42;101770.63;5051770;28;20025;-68
2022/04/10 02:45:58;;;;;;;15.88;6.65;;;;;;;0.29;93.82;101753.72;5051802;28;20029;-68
2022/04/10 02:48:23;;;;;;;11.65;5.10;;;;;;;0.41;93.54;101781.75;5050453;28;20029;-68
2022/04/10 02:50:48;;;;;;;9.10;4.70;;;;;;;0.38;93.60;101780.19;5051651;28;20025;-68
2022/04/10 02:53:14;;;;;;;7.72;4.88;;;;;;;0.33;93.75;101778.81;5051507;28;20049;-68
2022/04/10 02:55:39;;;;;;;14.00;6.63;;;;;;;0.40;94.03;101780.09;5051659;28;20039;-68
2022/04/10 02:58:04;;;;;;;15.82;5.82;;;;;;;0.40;93.99;101786.16;5051073;28;20464;-68
2022/04/10 03:00:30;;;;;;;9.98;6.32;;;;;;;0.39;94.10;101781.00;5051668;28;20036;-68
2022/04/10 03:02:55;;;;;;;13.00;6.97;;;;;;;0.39;94.11;101786.25;5050224;28;20108;-67
2022/04/10 03:05:20;;;;;;;13.32;6.45;;;;;;;0.39;94.33;101791.50;5051433;28;20081;-67
2022/04/10 03:07:46;;;;;;;10.98;5.93;;;;;;;0.38;94.25;101792.47;5051464;28;20036;-68
2022/04/10 03:10:11;;;;;;;12.02;6.20;;;;;;;0.35;94.29;101785.63;5051445;28;20039;-67
2022/04/10 03:12:37;;;;;;;13.70;6.70;;;;;;;0.38;94.45;101793.28;5051410;28;20031;-70
2022/04/10 03:15:03;;;;;;;12.38;6.75;;;;;;;0.38;94.69;101795.91;5051418;28;20038;-68
2022/04/10 03:17:29;;;;;;;13.10;6.68;;;;;;;0.39;94.64;101799.38;5051388;28;20915;-68
2022/04/10 03:19:54;;;;;;;14.52;7.72;;;;;;;0.38;94.73;101803.78;5051311;28;20055;-68
2022/04/10 03:22:19;;;;;;;11.38;5.80;;;;;;;0.35;94.93;101795.31;5051271;28;20062;-68
2022/04/10 03:24:45;;;;;;;13.85;7.70;;;;;;;0.33;95.11;101791.94;5051139;28;20041;-67
2022/04/10 03:27:10;;;;;;;14.57;7.97;;;;;;;0.37;95.04;101798.66;5050960;28;20055;-68
2022/04/10 03:29:36;;;;;;;17.27;8.13;;;;;;;0.36;95.12;101797.81;5051183;28;20028;-68
2022/04/10 03:32:01;;;;;;;17.85;7.90;;;;;;;0.36;95.01;101800.44;5050776;28;20123;-67
2022/04/10 03:34:27;;;;;;;21.77;10.75;;;;;;;0.35;95.22;101808.44;5050521;28;20460;-68
2022/04/10 03:36:52;;;;;;;14.48;7.15;;;;;;;0.33;95.09;101802.44;5050986;28;20032;-68
2022/04/10 03:39:17;;;;;;;19.58;8.70;;;;;;;0.32;95.25;101804.22;5050972;28;20025;-68
2022/04/10 03:41:43;;;;;;;16.42;9.10;;;;;;;0.32;95.41;101803.41;5050801;28;20075;-68
2022/04/10 03:44:08;;;;;;;14.77;8.32;;;;;;;0.31;95.62;101804.31;5050435;28;20033;-68
2022/04/10 03:46:33;;;;;;;17.58;9.15;;;;;;;0.30;95.70;101800.88;5050266;28;20124;-67
2022/04/10 03:48:59;;;;;;;15.63;8.85;;;;;;;0.29;95.71;101808.81;5050708;28;20136;-67
2022/04/10 03:51:24;;;;;;;20.33;9.00;;;;;;;0.29;95.98;101811.44;5050749;28;20048;-68
2022/04/10 03:53:50;;;;;;;16.60;9.13;;;;;;;0.28;95.59;101812.41;5050451;28;20045;-68
2022/04/10 03:56:15;;;;;;;16.60;10.15;;;;;;;0.28;95.96;101815.88;5050590;28;20043;-68
2022/04/10 03:58:41;;;;;;;14.85;8.75;;;;;;;0.30;96.30;101816.59;5050472;28;20480;-68
2022/04/10 04:01:06;;;;;;;16.67;8.95;;;;;;;0.30;96.15;101819.22;5050335;28;20052;-67
2022/04/10 04:03:31;;;;;;;14.65;7.97;;;;;;;0.29;95.93;101821.94;5050277;28;20107;-67
2022/04/10 04:05:57;;;;;;;17.52;8.65;;;;;;;0.29;96.26;101824.56;5032550;28;20545;-67
2022/04/10 04:08:22;;;;;;;21.27;10.10;;;;;;;0.27;96.42;101821.25;5050465;28;20082;-67
2022/04/10 04:10:48;;;;;;;19.02;9.63;;;;;;;0.27;96.27;101823.84;5049521;28;20036;-68
2022/04/10 04:13:13;;;;;;;17.30;10.38;;;;;;;0.27;96.35;101832.56;5050193;28;20044;-68
2022/04/10 04:15:39;;;;;;;18.38;9.27;;;;;;;0.27;96.43;101832.56;5050145;28;20059;-69
2022/04/10 04:18:04;;;;;;;13.32;8.77;;;;;;;0.27;96.30;101831.72;5050168;28;20887;-68
2022/04/10 04:20:30;;;;;;;20.98;10.90;;;;;;;0.25;96.45;101833.63;5050258;28;20037;-68
2022/04/10 04:22:55;;;;;;;24.90;10.88;;;;;;;0.24;96.06;101829.28;5049972;28;20547;-68
2022/04/10 04:25:21;;;;;;;16.90;9.60;;;;;;;0.23;96.40;101831.09;5049763;28;20511;-68
2022/04/10 04:27:46;;;;;;;18.60;9.55;;;;;;;0.23;96.39;101831.09;5050248;28;20063;-68
2022/04/10 04:30:12;;;;;;;18.92;10.48;;;;;;;0.23;96.66;101831.09;5049605;28;20062;-68
2022/04/10 04:32:37;;;;;;;18.13;8.60;;;;;;;0.23;96.63;101838.94;5049926;28;20048;-68
2022/04/10 04:35:04;;;;;;;17.20;9.73;;;;;;;0.19;96.47;101832.25;5049665;28;20028;-68
2022/04/10 04:37:29;;;;;;;18.08;9.15;;;;;;;0.22;96.50;101832.88;5049681;28;20108;-68
2022/04/10 04:39:54;;;;;;;16.50;9.05;;;;;;;0.22;96.46;101843.38;5049611;28;20021;-68
2022/04/10 04:42:20;;;;;;;16.92;8.40;;;;;;;0.22;96.64;101846.00;5049763;28;20381;-68
2022/04/10 04:44:45;;;;;;;17.13;9.32;;;;;;;0.23;96.63;101844.19;5049271;28;20484;-68
2022/04/10 04:47:11;;;;;;;16.42;9.88;;;;;;;0.24;96.59;101847.66;5049496;28;21058;-68
2022/04/10 04:49:36;;;;;;;15.07;9.02;;;;;;;0.24;96.67;101853.75;5049418;28;20084;-68
2022/04/10 04:52:01;;;;;;;21.73;10.65;;;;;;;0.24;96.86;101851.16;5048270;28;20036;-68
2022/04/10 04:54:27;;;;;;;17.00;8.77;;;;;;;0.23;96.74;101852.06;5049137;28;20493;-68
2022/04/10 04:56:53;;;;;;;19.08;9.05;;;;;;;0.18;96.89;101844.53;5049159;28;20033;-68
2022/04/10 04:59:18;;;;;;;19.58;8.80;;;;;;;0.24;97.02;101855.53;5047896;28;20028;-68
2022/04/10 05:01:44;;;;;;;22.25;8.85;;;;;;;0.24;96.94;101852.91;5047760;28;20029;-68
2022/04/10 05:04:11;;;;;;;18.25;9.48;;;;;;;0.18;96.84;101839.28;5048780;28;20145;-68
2022/04/10 05:06:37;;;;;;;20.45;10.10;;;;;;;0.27;96.93;101848.31;5049166;28;20672;-68
2022/04/10 05:09:03;;;;;;;17.23;9.43;;;;;;;0.32;97.02;101858.50;5049337;28;20025;-68
2022/04/10 05:11:28;;;;;;;18.17;10.07;;;;;;;0.34;97.08;101856.59;5049184;28;20047;-68
2022/04/10 05:13:54;;;;;;;16.55;9.98;;;;;;;0.40;97.33;101864.06;5049127;28;20028;-68
2022/04/10 05:16:19;;;;;;;16.85;8.73;;;;;;;0.42;97.17;101863.00;5049238;28;20151;-68
2022/04/10 05:18:44;;;;;;;19.20;9.68;;;;;;;0.45;97.12;101859.31;5049017;28;20025;-68
2022/04/10 05:21:10;;;;;;;16.77;8.77;;;;;;;0.48;97.01;101866.97;5048454;28;20040;-68
2022/04/10 05:23:36;;;;;;;17.48;9.48;;;;;;;0.50;96.88;101853.72;5048594;28;20032;-67
2022/04/10 05:26:02;;;;;;;17.52;9.10;;;;;;;0.56;96.69;101869.06;5049110;28;20437;-67
2022/04/10 05:28:27;;;;;;;20.88;10.23;;;;;;;0.57;96.94;101862.88;5048938;28;20120;-67
2022/04/10 05:30:53;;;;;;;17.63;9.52;;;;;;;0.64;96.87;101872.84;5049044;28;20041;-68
2022/04/10 05:33:19;;;;;;;16.42;9.60;;;;;;;0.72;96.76;101879.34;5047875;28;20046;-68
2022/04/10 05:35:44;;;;;;;19.98;10.40;;;;;;;0.77;96.63;101875.44;5048840;28;20037;-68
2022/04/10 05:38:10;;;;;;;16.88;9.68;;;;;;;0.89;96.66;101871.09;5048714;28;20029;-68
2022/04/10 05:40:35;;;;;;;16.77;9.23;;;;;;;0.97;96.55;101881.94;5048760;28;20036;-68
2022/04/10 05:43:01;;;;;;;17.05;8.82;;;;;;;1.17;96.58;101884.91;5048903;28;20029;-68
2022/04/10 05:45:26;;;;;;;16.83;9.27;;;;;;;1.34;96.11;101896.84;5047343;28;20029;-68
2022/04/10 05:47:52;;;;;;;20.13;10.30;;;;;;;1.44;95.80;101892.59;5048568;28;20492;-68
2022/04/10 05:50:17;;;;;;;15.35;9.13;;;;;;;1.53;95.41;101894.56;5048939;28;20124;-68
2022/04/10 05:52:45;;;;;;;14.27;8.43;;;;;;;1.60;95.36;101887.91;5048891;28;20028;-68
2022/04/10 05:55:12;;;;;;;18.73;8.45;;;;;;;1.80;95.42;101901.38;5048690;28;20049;-68
2022/04/10 05:57:38;;;;;;;15.98;9.05;;;;;;;1.94;94.99;101903.84;5048770;28;20056;-67
2022/04/10 06:00:06;;;;;;;20.73;8.57;;;;;;;2.14;94.46;101915.47;5048610;28;20075;-68
2022/04/10 06:02:32;;;;;;;18.67;9.45;;;;;;;2.38;94.13;101913.66;5048713;28;20036;-68
2022/04/10 06:04:57;;;;;;;15.30;9.95;;;;;;;2.78;93.08;101923.72;5047258;28;20037;-68
2022/04/10 06:07:23;;;;;;;14.18;8.82;;;;;;;3.02;91.94;101920.97;5048685;28;20146;-68
2022/04/10 06:09:48;;;;;;;15.40;7.68;;;;;;;3.13;91.54;101924.56;5048716;28;20033;-68
2022/04/10 06:12:13;;;;;;;15.65;8.32;;;;;;;3.11;90.38;101922.03;5048679;28;20029;-68
2022/04/10 06:14:39;;;;;;;13.57;7.07;;;;;;;3.04;90.48;101929.59;5048193;28;20029;-68
2022/04/10 06:17:04;;;;;;;20.83;8.82;;;;;;;2.99;90.73;101939.66;5048510;28;20108;-68
2022/04/10 06:19:30;;;;;;;14.18;7.63;;;;;;;3.04;90.97;101934.03;5048440;28;20063;-68
2022/04/10 06:21:55;;;;;;;16.15;6.88;;;;;;;3.22;91.24;101931.72;5048506;28;20040;-68
2022/04/10 06:24:21;;;;;;;15.05;7.85;;;;;;;3.56;89.71;101936.94;5048281;28;20120;-68
2022/04/10 06:26:49;;;;;;;16.08;8.18;;;;;;;3.99;89.63;101936.09;5046925;28;20028;-68
2022/04/10 06:29:15;;;;;;;14.18;7.50;;;;;;;4.56;87.26;101937.44;5047190;28;20029;-68
2022/04/10 06:31:40;;;;;;;13.90;7.22;;;;;;;4.80;86.06;101937.97;5048422;28;20396;-68
2022/04/10 06:34:06;;;;;;;13.77;7.18;;;;;;;4.74;85.97;101942.94;5050553;28;20017;-68
2022/04/10 06:36:31;;;;;;;17.75;9.30;;;;;;;4.74;85.75;101933.22;5052077;28;20095;-69
2022/04/10 06:38:56;;;;;;;14.25;7.63;;;;;;;4.78;84.16;101944.38;5051673;28;20052;-70
2022/04/10 06:41:22;;;;;;;14.35;7.43;;;;;;;4.64;84.32;101948.19;5051728;28;20036;-70
2022/04/10 06:43:47;;;;;;;13.90;7.25;;;;;;;4.64;85.40;101961.41;5051517;28;20104;-69
2022/04/10 06:46:13;;;;;;;14.35;7.63;;;;;;;4.76;84.71;101951.59;5051792;28;20090;-70
2022/04/10 06:48:39;;;;;;;12.88;6.57;;;;;;;4.83;84.67;101952.75;5051644;28;20435;-68
2022/04/10 06:51:04;;;;;;;12.77;7.78;;;;;;;4.85;84.25;101956.09;5051804;28;20041;-69
2022/04/10 06:53:30;;;;;;;14.20;7.93;;;;;;;4.79;84.51;101962.75;5051494;28;20053;-69
2022/04/10 06:55:56;;;;;;;11.70;6.07;;;;;;;4.71;84.84;101961.72;5051601;28;20032;-69
2022/04/10 06:58:23;;;;;;;13.10;6.90;;;;;;;4.67;85.44;101952.38;5051598;28;20048;-70
2022/04/10 07:00:52;;;;;;;15.18;6.82;;;;;;;4.71;86.23;101967.00;5051582;28;20017;-69
2022/04/10 07:03:17;;;;;;;13.15;5.53;;;;;;;4.75;86.44;101958.69;5051307;28;20599;-71
2022/04/10 07:05:43;;;;;;;15.52;6.20;;;;;;;4.75;85.30;101966.59;5051510;28;20036;-70
2022/04/10 07:08:09;;;;;;;10.80;5.43;;;;;;;4.82;85.76;101961.63;5051375;28;20029;-70
2022/04/10 07:10:36;;;;;;;12.90;4.78;;;;;;;4.90;85.67;101972.41;5051207;28;20029;-69
2022/04/10 07:13:03;;;;;;;11.00;5.38;;;;;;;4.98;85.42;101971.75;5051315;28;20055;-70
2022/04/10 07:15:28;;;;;;;14.60;5.57;;;;;;;5.07;85.95;101975.38;5050257;28;20020;-69
2022/04/10 07:17:55;;;;;;;7.68;4.88;;;;;;;5.17;84.74;101982.38;5051006;28;20068;-69
2022/04/10 07:20:20;;;;;;;7.10;4.13;;;;;;;5.24;84.11;101986.19;5051240;28;20154;-69
2022/04/10 07:25:29;;;;;;;8.82;4.00;;;;;;;5.45;82.22;101982.63;5049916;28;20479;-69
2022/04/10 07:27:55;;;;;;;7.55;4.05;;;;;;;5.59;82.95;101982.22;5050875;28;20116;-69
2022/04/10 07:30:20;;;;;;;10.23;5.85;;;;;;;5.77;82.58;101978.94;5049636;28;20037;-69
2022/04/10 07:32:56;;;;;;;9.68;4.15;;;;;;;5.97;81.50;101977.97;5050908;28;20033;-69
2022/04/10 07:35:22;;;;;;;8.13;4.00;;;;;;;6.29;80.25;101982.19;5050958;28;20032;-72
2022/04/10 07:37:48;;;;;;;10.18;4.93;;;;;;;6.59;78.68;101991.75;5050662;28;20033;-69
2022/04/10 07:40:14;;;;;;;7.38;3.60;;;;;;;7.00;77.19;101995.84;5050160;28;20037;-69
2022/04/10 07:42:42;;;;;;;7.93;4.00;;;;;;;7.31;76.96;101982.31;5050738;28;20028;-69
2022/04/10 07:45:08;;;;;;;15.35;6.97;;;;;;;7.68;74.46;101992.88;5049257;28;20396;-69
2022/04/10 07:47:33;;;;;;;8.95;3.53;;;;;;;8.00;73.92;102003.97;5050693;28;20033;-69
2022/04/10 07:49:58;;;;;;;12.88;3.78;;;;;;;8.58;71.47;102008.00;5050429;28;20029;-69
2022/04/10 07:52:24;;;;;;;8.45;3.05;;;;;;;9.17;68.62;102003.72;5050234;28;20048;-70
2022/04/10 07:54:52;;;;;;;9.00;3.45;;;;;;;9.35;69.42;102008.94;5050315;28;20059;-69
2022/04/10 07:57:18;;;;;;;8.48;3.92;;;;;;;9.98;66.30;102003.16;5050556;28;20120;-70
2022/04/10 07:59:44;;;;;;;8.45;3.58;;;;;;;10.61;64.52;102011.50;5049216;28;20108;-69
2022/04/10 08:02:10;;;;;;;14.07;4.00;;;;;;;10.60;63.25;102017.84;5050256;28;20560;-70
2022/04/10 08:04:35;;;;;;;7.25;3.50;;;;;;;9.92;64.43;102017.09;5048799;28;20056;-70
2022/04/10 08:07:01;;;;;;;5.25;3.17;;;;;;;9.29;65.13;102039.69;5050107;28;20048;-69
2022/04/10 08:09:26;;;;;;;7.47;3.30;;;;;;;8.84;65.39;102040.75;5048848;28;20029;-70
2022/04/10 08:11:53;;;;;;;6.78;2.65;;;;;;;8.72;66.98;102044.66;5045454;28;20059;-70
2022/04/10 08:14:19;;;;;;;5.15;2.70;;;;;;;8.97;64.05;102051.81;5045517;28;20017;-71
2022/04/10 08:16:44;;;;;;;8.55;2.67;;;;;;;8.37;65.79;102048.16;5046025;28;20017;-69
2022/04/10 08:19:10;;;;;;;8.88;2.17;;;;;;;7.87;66.09;102071.56;5046322;28;20017;-69
2022/04/10 08:21:35;;;;;;;6.68;2.75;;;;;;;7.54;68.84;102069.50;5045967;28;20989;-69
2022/04/10 08:24:01;;;;;;;1.73;1.60;;;;;;;8.76;65.12;102065.47;5045912;28;20029;-70
2022/04/10 08:26:26;;;;;;;3.92;1.95;;;;;;;10.20;58.97;102046.97;5045240;28;20055;-70
2022/04/10 08:28:52;;;;;;;7.45;2.72;;;;;;;11.36;55.47;102062.75;5049848;28;20086;-70
2022/04/10 08:31:17;;;;;;;3.55;2.03;;;;;;;12.20;53.49;102062.19;5049763;28;20075;-70
2022/04/10 08:33:43;;;;;;;5.32;2.20;;;;;;;12.79;52.52;102061.56;5049732;28;20021;-69
2022/04/10 08:36:08;;;;;;;5.95;2.00;;;;;;;12.93;51.00;102066.13;5049765;28;20128;-70
2022/04/10 08:38:34;;;;;;;8.27;1.88;;;;;;;13.04;50.69;102071.00;5049756;28;20036;-70
2022/04/10 08:41:01;;;;;;;2.38;2.15;;;;;;;12.32;50.00;102065.31;5049344;28;20078;-70
2022/04/10 08:43:28;;;;;;;6.07;2.03;;;;;;;11.15;53.86;102062.47;5049024;28;20025;-70
2022/04/10 08:45:58;;;;;;;4.88;2.22;;;;;;;10.28;56.96;102070.19;5049066;28;20032;-70
2022/04/10 08:48:27;;;;;;;6.22;1.65;;;;;;;9.82;59.92;102073.22;5049214;28;20029;-70
2022/04/10 08:50:59;;;;;;;5.60;2.35;;;;;;;9.39;60.83;102063.53;5049607;28;20040;-70
2022/04/10 08:53:25;;;;;;;2.40;1.77;;;;;;;9.06;61.27;102073.16;5049075;28;20036;-70
2022/04/10 08:55:50;;;;;;;5.70;2.47;;;;;;;8.92;62.52;102074.56;5049112;28;20037;-70
2022/04/10 08:58:17;;;;;;;21.20;4.25;;;;;;;8.81;61.87;102070.34;5049447;28;20043;-70
2022/04/10 09:00:44;;;;;;;5.25;1.98;;;;;;;8.75;64.59;102076.25;5048280;28;20127;-69
2022/04/10 09:03:10;;;;;;;3.78;1.98;;;;;;;8.70;64.09;102062.63;5049428;28;20033;-69
2022/04/10 09:05:36;;;;;;;5.63;1.70;;;;;;;8.75;65.04;102070.94;5049196;28;20036;-69
2022/04/10 09:08:11;;;;;;;4.78;2.15;;;;;;;8.87;62.98;102072.38;5049474;28;20028;-69
2022/04/10 09:11:02;;;;;;;6.30;2.33;;;;;;;8.88;64.79;102073.19;5049365;28;20510;-70
2022/04/10 09:13:30;;;;;;;7.75;2.63;;;;;;;8.80;63.35;102073.97;5049248;28;20033;-70
2022/04/10 09:16:11;;;;;;;7.30;1.95;;;;;;;8.67;62.20;102076.19;5049240;28;21051;-70
2022/04/10 09:18:48;;;;;;;10.00;2.00;;;;;;;8.75;63.10;102076.25;5049237;28;20036;-70
2022/04/10 09:21:15;;;;;;;6.63;2.42;;;;;;;8.92;60.54;102079.91;5048989;28;20463;-70
2022/04/10 09:23:41;;;;;;;16.55;3.40;;;;;;;9.11;63.02;102079.69;5048959;28;20055;-70
2022/04/10 09:26:06;;;;;;;3.90;1.92;;;;;;;9.20;60.89;102080.59;5047666;28;20037;-70
2022/04/10 09:28:46;;;;;;;6.93;2.25;;;;;;;9.20;61.11;102072.59;5049069;28;20087;-70
2022/04/10 09:31:31;;;;;;;6.70;2.63;;;;;;;9.11;58.53;102076.19;5049042;28;20064;-70
2022/04/10 09:34:01;;;;;;;3.40;2.15;;;;;;;9.16;58.33;102077.38;5049177;28;20028;-70
2022/04/10 09:37:04;;;;;;;4.32;1.70;;;;;;;9.27;59.79;102068.28;5049095;28;20556;-70
2022/04/10 09:39:33;;;;;;;6.72;2.55;;;;;;;9.32;57.97;102070.50;5045193;28;20075;-70
2022/04/10 09:42:03;;;;;;;3.08;1.40;;;;;;;9.24;57.84;102067.78;5048847;28;20033;-70
2022/04/10 09:44:32;;;;;;;5.20;2.05;;;;;;;9.32;58.68;102062.50;5049129;28;20381;-70
2022/04/10 09:47:08;;;;;;;4.03;2.05;;;;;;;9.60;56.18;102071.13;5048733;28;20029;-70
2022/04/10 09:49:34;;;;;;;3.65;1.50;;;;;;;9.83;58.11;102055.41;5048811;28;20111;-70
2022/04/10 09:52:07;;;;;;;4.55;1.52;;;;;;;9.82;54.27;102062.56;5031058;28;20071;-70
2022/04/10 09:54:35;;;;;;;1.80;1.30;;;;;;;9.60;54.76;102069.28;5048153;28;20053;-70
2022/04/10 09:57:03;;;;;;;3.97;1.20;;;;;;;9.48;55.50;102065.22;5048848;28;20025;-70
2022/04/10 09:59:34;;;;;;;3.10;1.55;;;;;;;9.55;53.70;102079.59;5048857;28;20432;-70
2022/04/10 10:02:02;;;;;;;4.47;1.30;;;;;;;9.80;55.85;102066.38;5048650;28;20033;-70
2022/04/10 10:04:28;;;;;;;2.55;1.20;;;;;;;9.84;53.57;102067.72;5048831;28;20051;-70
2022/04/10 10:06:55;;;;;;;4.20;1.65;;;;;;;9.69;52.92;102070.16;5048597;28;20033;-70
2022/04/10 10:09:21;;;;;;;5.75;2.28;;;;;;;9.79;53.22;102068.19;5051323;28;20541;-70
2022/04/10 10:11:47;;;;;;;3.42;1.60;;;;;;;10.03;53.15;102066.59;5052547;28;20033;-70
2022/04/10 10:14:13;;;;;;;4.70;1.60;;;;;;;10.01;51.90;102068.63;5052475;28;20039;-70
2022/04/10 10:16:41;;;;;;;4.47;1.50;;;;;;;9.84;53.78;102067.72;5034765;28;20358;-70
2022/04/10 10:19:07;;;;;;;1.50;1.17;;;;;;;9.66;54.44;102065.16;5052329;28;20025;-70
2022/04/10 10:21:33;;;;;;;7.10;1.65;;;;;;;9.39;54.40;102066.22;5052115;28;20036;-70
2022/04/10 10:24:00;;;;;;;2.40;1.20;;;;;;;9.30;56.06;102065.34;5052371;28;20385;-70
2022/04/10 10:26:40;;;;;;;4.38;1.20;;;;;;;9.45;58.49;102065.56;5052289;28;20052;-70
2022/04/10 10:29:11;;;;;;;4.65;1.85;;;;;;;9.64;56.27;102064.47;5052559;28;20106;-69
2022/04/10 10:31:45;;;;;;;3.42;1.45;;;;;;;9.72;55.37;102064.53;5052247;28;20032;-69
2022/04/10 10:34:11;;;;;;;3.13;1.58;;;;;;;9.84;55.43;102044.56;5052054;28;20065;-69
2022/04/10 10:36:37;;;;;;;2.22;1.05;;;;;;;9.92;50.56;102053.59;5052054;28;20481;-69
2022/04/10 10:39:07;;;;;;;1.45;1.35;;;;;;;9.71;55.01;102049.53;5052177;28;20469;-70
2022/04/10 10:41:34;;;;;;;1.77;0.98;;;;;;;9.60;52.98;102053.31;5051973;28;20144;-70
2022/04/10 10:44:18;;;;;;;6.45;1.05;;;;;;;9.77;55.74;102053.38;5051515;28;20037;-69
2022/04/10 10:46:58;;;;;;;1.70;1.42;;;;;;;10.20;53.04;102043.47;5048705;28;20434;-69
2022/04/10 10:49:26;;;;;;;4.28;2.05;;;;;;;10.28;52.83;102047.00;5047211;28;20028;-69
2022/04/10 10:51:54;;;;;;;1.98;1.40;;;;;;;10.40;53.37;102054.69;5047216;28;20507;-70
2022/04/10 10:54:34;;;;;;;7.97;2.17;;;;;;;10.47;53.36;102058.38;5047107;28;20068;-69
2022/04/10 10:57:29;;;;;;;3.20;1.42;;;;;;;10.36;52.47;102058.69;5046585;28;20035;-70
2022/04/10 11:00:15;;;;;;;6.03;1.67;;;;;;;10.34;51.98;102053.50;5047481;28;20523;-70
2022/04/10 11:02:48;;;;;;;2.75;1.20;;;;;;;10.53;51.81;102055.88;5047747;28;20021;-69
2022/04/10 11:05:35;;;;;;;3.55;1.40;;;;;;;10.90;51.67;102043.00;5047316;28;20052;-70
2022/04/10 11:08:05;;;;;;;4.53;2.45;;;;;;;10.95;48.01;102054.00;5047175;28;20064;-70
2022/04/10 11:10:34;;;;;;;2.83;1.10;;;;;;;10.63;47.71;102049.53;5047637;28;20047;-70
2022/04/10 11:13:05;;;;;;;3.22;1.40;;;;;;;10.31;48.20;102056.53;5051036;28;20025;-70
2022/04/10 11:15:33;;;;;;;2.20;1.30;;;;;;;10.09;49.52;102057.97;5051364;28;20453;-69
2022/04/10 11:18:23;;;;;;;2.05;1.30;;;;;;;10.19;49.48;102047.13;5051022;28;20025;-69
2022/04/10 11:20:56;;;;;;;3.38;1.00;;;;;;;10.36;47.64;102035.53;5051079;28;20025;-70
2022/04/10 11:23:27;;;;;;;3.15;1.00;;;;;;;10.73;51.89;102048.34;5050988;28;20055;-69
2022/04/10 11:25:53;;;;;;;3.73;1.30;;;;;;;10.91;52.95;102050.00;5050611;28;20516;-70
2022/04/10 11:28:18;;;;;;;4.82;1.67;;;;;;;10.77;52.18;102051.53;5050850;28;20139;-69